Time;durP1;ratioP1;P1;durP2;ratioP2;P2;SDS_P1;SDS_P2;PMS_P1;PMS_P2;Temp;Humidity;BMP_temperature;BMP_pressure;BME280_temperature;BME280_humidity;BME280_pressure;Samples;Min_cycle;Max_cycle;Signal;HPM_P1;HPM_P2
2023/06/07 00:00:07;;;;;;;6.07;3.40;;;;;;;17.82;54.54;97792.47;10325599;28;20116;-51
2023/06/07 00:05:06;;;;;;;7.32;4.10;;;;;;;17.81;54.17;97787.28;10326052;28;20076;-52
2023/06/07 00:10:06;;;;;;;7.30;3.63;;;;;;;17.66;54.48;97767.53;10325807;28;20067;-50
2023/06/07 00:15:05;;;;;;;7.95;3.72;;;;;;;17.77;54.76;97787.34;10325206;28;20124;-50
2023/06/07 00:20:08;;;;;;;6.40;3.72;;;;;;;17.66;54.33;97776.31;10325259;28;20152;-51
2023/06/07 00:25:08;;;;;;;10.25;4.00;;;;;;;17.64;54.73;97787.75;10324880;28;20084;-51
2023/06/07 00:30:08;;;;;;;9.10;4.10;;;;;;;17.68;54.83;97795.50;10324930;28;20073;-51
2023/06/07 00:35:07;;;;;;;6.53;3.47;;;;;;;17.65;54.87;97794.72;10322014;28;20099;-51
2023/06/07 00:40:07;;;;;;;8.05;3.60;;;;;;;17.54;55.21;97795.00;10324048;28;20108;-52
2023/06/07 00:45:06;;;;;;;4.32;3.40;;;;;;;17.31;55.68;97756.31;10324259;28;20112;-50
2023/06/07 00:50:06;;;;;;;7.78;3.63;;;;;;;17.42;56.25;97784.84;10323981;28;20120;-52
2023/06/07 00:55:06;;;;;;;5.10;3.55;;;;;;;17.39;56.43;97790.19;10323773;28;20073;-49
2023/06/07 01:00:09;;;;;;;8.93;3.80;;;;;;;17.26;56.93;97787.94;10323571;28;20524;-51
2023/06/07 01:05:08;;;;;;;7.57;3.92;;;;;;;17.22;57.23;97788.91;10325083;28;20069;-52
2023/06/07 01:10:08;;;;;;;7.53;4.10;;;;;;;17.25;57.34;97783.56;10324124;28;20080;-51
2023/06/07 01:15:07;;;;;;;8.07;4.43;;;;;;;17.30;56.99;97779.03;10324107;28;20124;-52
2023/06/07 01:20:12;;;;;;;13.23;3.90;;;;;;;17.25;56.56;97780.94;10323825;28;20542;-51
2023/06/07 01:25:11;;;;;;;7.75;3.75;;;;;;;17.31;56.96;97769.44;10323901;28;20073;-51
2023/06/07 01:30:12;;;;;;;8.18;4.40;;;;;;;17.30;60.02;97771.19;10328302;28;20063;-52
2023/06/07 01:35:13;;;;;;;9.25;4.80;;;;;;;17.29;62.83;97785.22;10331855;28;20105;-50
2023/06/07 01:40:14;;;;;;;8.02;4.40;;;;;;;17.12;63.86;97784.78;10331691;28;20727;-52
2023/06/07 01:45:13;;;;;;;8.43;4.85;;;;;;;17.09;65.16;97783.13;10330928;28;20124;-50
2023/06/07 01:50:20;;;;;;;8.02;4.55;;;;;;;16.92;65.87;97782.72;10330396;28;20352;-52
2023/06/07 01:55:19;;;;;;;9.38;4.90;;;;;;;16.68;67.14;97785.03;10330507;28;20071;-52
2023/06/07 02:00:49;;;;;;;8.70;5.10;;;;;;;16.50;67.73;97780.25;10329571;28;20117;-52
2023/06/07 02:05:50;;;;;;;;;;;;;;;16.54;64.20;97783.66;10330383;28;20423;-50
2023/06/07 02:10:51;;;;;;;9.75;4.40;;;;;;;16.64;64.67;97783.38;10329597;28;20389;-51
2023/06/07 02:15:50;;;;;;;7.65;4.47;;;;;;;16.76;63.77;97795.31;10329163;28;20065;-50
2023/06/07 02:20:49;;;;;;;6.78;4.10;;;;;;;16.83;62.83;97778.56;10329382;28;20544;-52
2023/06/07 02:25:49;;;;;;;7.88;4.40;;;;;;;16.89;61.95;97788.03;10330406;28;20416;-51
2023/06/07 02:30:48;;;;;;;6.85;4.85;;;;;;;16.91;62.38;97784.47;10329111;28;20483;-52
2023/06/07 02:35:47;;;;;;;11.10;4.28;;;;;;;16.93;61.11;97787.91;10328712;28;20405;-51
2023/06/07 02:40:46;;;;;;;7.43;3.65;;;;;;;17.00;60.00;97790.38;10328441;28;20034;-52
2023/06/07 02:45:45;;;;;;;6.65;3.70;;;;;;;16.96;60.76;97783.47;10332397;28;20596;-51
2023/06/07 02:50:44;;;;;;;6.45;3.95;;;;;;;17.03;60.19;97777.19;10331814;28;20499;-52
2023/06/07 02:55:43;;;;;;;7.68;4.40;;;;;;;17.06;60.01;97784.97;10330953;28;20451;-52
2023/06/07 03:00:46;;;;;;;12.13;4.63;;;;;;;16.27;65.25;97673.44;10331199;28;20021;-51
2023/06/07 03:05:48;;;;;;;7.53;4.82;;;;;;;16.86;66.74;97791.59;10331368;28;20076;-52
2023/06/07 03:10:46;;;;;;;8.95;4.95;;;;;;;16.66;65.87;97788.59;10330765;28;20068;-48
2023/06/07 03:15:45;;;;;;;7.82;4.63;;;;;;;16.79;64.84;97778.66;10330567;28;20109;-51
2023/06/07 03:20:44;;;;;;;9.52;4.68;;;;;;;16.92;64.73;97782.72;10330298;28;20036;-50
2023/06/07 03:25:43;;;;;;;12.18;5.28;;;;;;;17.04;65.91;97782.38;10330547;28;20472;-51
2023/06/07 03:30:42;;;;;;;12.43;4.85;;;;;;;17.00;66.65;97785.97;10329622;28;20397;-50
2023/06/07 03:35:44;;;;;;;12.43;4.93;;;;;;;16.84;66.19;97761.06;10328967;28;20131;-51
2023/06/07 03:40:43;;;;;;;10.93;4.45;;;;;;;17.03;65.18;97782.44;10329718;28;20532;-52
2023/06/07 03:45:42;;;;;;;8.00;3.95;;;;;;;17.08;63.13;97788.41;10325698;28;20526;-48
2023/06/07 03:50:41;;;;;;;9.05;5.10;;;;;;;17.23;64.60;97785.38;10324753;28;20070;-49
2023/06/07 03:55:41;;;;;;;7.75;5.20;;;;;;;17.03;68.36;97787.69;10326257;28;20043;-52
2023/06/07 04:00:40;;;;;;;10.32;5.60;;;;;;;17.05;69.34;97786.75;10325660;28;20104;-52
2023/06/07 04:05:40;;;;;;;12.90;6.50;;;;;;;17.02;70.49;97786.78;10325827;28;20072;-51
2023/06/07 04:10:41;;;;;;;15.48;7.55;;;;;;;17.18;70.74;97784.63;10324852;28;20064;-52
2023/06/07 04:15:42;;;;;;;12.95;7.40;;;;;;;17.29;71.09;97790.47;10325347;28;20060;-52
2023/06/07 04:20:41;;;;;;;11.15;6.07;;;;;;;17.49;70.81;97775.91;10324300;28;20120;-50
2023/06/07 04:25:41;;;;;;;12.05;6.13;;;;;;;17.52;69.61;97778.47;10325284;28;20531;-51
2023/06/07 04:30:42;;;;;;;12.27;5.68;;;;;;;17.82;69.33;97778.50;10324303;28;20073;-49
2023/06/07 04:35:44;;;;;;;14.05;5.28;;;;;;;18.04;67.98;97783.97;10322833;28;20133;-52
2023/06/07 04:40:48;;;;;;;10.02;4.85;;;;;;;18.27;66.18;97786.75;10320517;28;20221;-49
2023/06/07 04:45:53;;;;;;;8.98;4.72;;;;;;;18.44;64.76;97782.72;10321270;28;20129;-52
2023/06/07 04:50:54;;;;;;;8.32;4.70;;;;;;;18.53;63.72;97779.81;10323168;28;20129;-49
2023/06/07 04:55:56;;;;;;;9.30;4.80;;;;;;;18.61;62.53;97789.13;10327223;28;20086;-50
2023/06/07 05:00:56;;;;;;;13.07;4.97;;;;;;;18.60;61.57;97779.53;10324799;28;20148;-51
2023/06/07 05:06:00;;;;;;;9.63;4.32;;;;;;;18.75;61.02;97793.13;10334049;28;20073;-50
2023/06/07 05:10:59;;;;;;;9.55;4.82;;;;;;;18.94;61.19;97788.94;10333020;28;20100;-52
2023/06/07 05:15:58;;;;;;;7.88;4.95;;;;;;;19.11;60.50;97795.41;10332143;28;20155;-52
2023/06/07 05:20:57;;;;;;;9.30;5.20;;;;;;;19.22;61.58;97795.88;10330502;28;20112;-52
2023/06/07 05:25:56;;;;;;;10.15;4.95;;;;;;;19.17;60.90;97789.94;10332076;28;20525;-50
2023/06/07 05:30:56;;;;;;;11.80;5.50;;;;;;;18.91;62.48;97794.31;10330471;28;20030;-51
2023/06/07 05:35:55;;;;;;;8.82;5.10;;;;;;;18.81;62.58;97804.28;10330355;28;20169;-52
2023/06/07 05:40:55;;;;;;;10.52;5.60;;;;;;;18.85;63.73;97802.41;10330938;28;20030;-52
2023/06/07 05:45:54;;;;;;;9.80;5.38;;;;;;;19.05;64.51;97788.59;10334038;28;20083;-51
2023/06/07 05:50:54;;;;;;;11.68;5.22;;;;;;;19.41;63.51;97793.44;10333556;28;20050;-52
2023/06/07 05:55:53;;;;;;;10.38;4.43;;;;;;;19.39;61.71;97808.44;10335058;28;20079;-52
2023/06/07 06:00:53;;;;;;;7.25;4.72;;;;;;;19.56;59.97;97794.72;10329910;28;20075;-52
2023/06/07 06:05:56;;;;;;;8.43;4.43;;;;;;;19.89;58.71;97794.38;10334599;28;20068;-52
2023/06/07 06:10:55;;;;;;;6.82;4.80;;;;;;;20.12;58.05;97791.72;10324885;28;20152;-50
2023/06/07 06:15:54;;;;;;;9.73;5.25;;;;;;;20.06;56.89;97797.22;10330181;28;20125;-52
2023/06/07 06:20:53;;;;;;;8.95;4.55;;;;;;;20.41;57.02;97797.66;10333239;28;20084;-51
2023/06/07 06:25:52;;;;;;;11.15;5.07;;;;;;;20.60;56.73;97806.53;10332745;28;20531;-52
2023/06/07 06:30:51;;;;;;;8.70;4.68;;;;;;;20.25;57.22;97781.56;10333437;28;20485;-53
2023/06/07 06:35:50;;;;;;;7.10;4.05;;;;;;;20.76;57.66;97808.53;10332234;28;20041;-51
2023/06/07 06:40:48;;;;;;;8.85;4.43;;;;;;;20.83;56.14;97796.81;10330608;28;20045;-50
2023/06/07 06:45:47;;;;;;;6.65;4.50;;;;;;;20.96;54.41;97805.94;10329102;28;20057;-51
2023/06/07 06:50:47;;;;;;;6.40;3.80;;;;;;;21.14;54.37;97802.50;10327719;28;20037;-50
2023/06/07 06:55:47;;;;;;;8.63;4.18;;;;;;;21.41;53.56;97783.78;10326111;28;20160;-51
2023/06/07 07:00:47;;;;;;;7.88;4.55;;;;;;;21.95;53.89;97792.78;10326032;28;20128;-50
2023/06/07 07:05:46;;;;;;;9.32;4.78;;;;;;;22.62;53.79;97787.84;10326967;28;20069;-52
2023/06/07 07:10:47;;;;;;;12.40;4.93;;;;;;;23.15;48.25;97780.84;10331411;28;20049;-54
2023/06/07 07:15:46;;;;;;;6.07;4.53;;;;;;;23.19;47.75;97796.50;10333374;28;20064;-53
2023/06/07 07:20:45;;;;;;;8.13;4.10;;;;;;;23.27;48.29;97796.06;10323516;28;20108;-53
2023/06/07 07:25:45;;;;;;;8.27;4.57;;;;;;;23.45;47.72;97786.34;10321458;28;20068;-50
2023/06/07 07:30:44;;;;;;;8.68;4.30;;;;;;;23.76;46.87;97793.53;10325239;28;20143;-50
2023/06/07 07:35:43;;;;;;;8.82;4.13;;;;;;;23.62;47.04;97799.56;10326102;28;20057;-53
2023/06/07 07:40:45;;;;;;;8.27;3.92;;;;;;;23.66;46.90;97786.16;10325144;28;20108;-49
2023/06/07 07:45:44;;;;;;;8.25;4.55;;;;;;;23.94;46.86;97793.47;10325787;28;20076;-52
2023/06/07 07:50:43;;;;;;;7.68;3.72;;;;;;;23.85;46.64;97800.97;10325475;28;20052;-51
2023/06/07 07:55:42;;;;;;;6.53;3.83;;;;;;;24.01;45.34;97797.50;10321831;28;20112;-51
2023/06/07 08:00:41;;;;;;;7.20;3.47;;;;;;;24.00;44.66;97812.53;10321439;28;20132;-51
2023/06/07 08:05:40;;;;;;;6.78;3.60;;;;;;;24.12;42.60;97799.53;10328113;28;20124;-53
2023/06/07 08:10:39;;;;;;;6.03;3.45;;;;;;;24.26;43.50;97802.31;10326583;28;20072;-53
2023/06/07 08:15:39;;;;;;;9.63;4.25;;;;;;;24.00;44.25;97812.53;10322306;28;20124;-51
2023/06/07 08:20:38;;;;;;;7.45;3.60;;;;;;;23.64;44.62;97810.09;10320816;28;20072;-52
2023/06/07 08:25:37;;;;;;;5.82;3.42;;;;;;;23.59;45.06;97802.38;10325979;28;20141;-51
2023/06/07 08:30:35;;;;;;;6.22;3.95;;;;;;;23.77;44.49;97813.81;10326387;28;20232;-50
2023/06/07 08:35:34;;;;;;;7.10;4.10;;;;;;;23.92;43.54;97814.75;10324594;28;20511;-49
2023/06/07 08:40:35;;;;;;;6.60;3.80;;;;;;;23.78;42.44;97812.00;10325632;28;20124;-49
2023/06/07 08:45:34;;;;;;;5.35;3.42;;;;;;;23.92;42.77;97814.75;10325114;28;20065;-51
2023/06/07 08:50:34;;;;;;;8.63;4.30;;;;;;;24.04;42.13;97803.47;10318496;28;20058;-52
2023/06/07 08:55:33;;;;;;;6.65;4.35;;;;;;;24.58;43.15;97813.78;10314574;28;20176;-52
2023/06/07 09:00:32;;;;;;;8.55;4.10;;;;;;;24.66;42.84;97797.41;10322149;28;20133;-52
2023/06/07 09:05:31;;;;;;;6.10;3.95;;;;;;;24.88;41.61;97813.00;10322582;28;20155;-51
2023/06/07 09:10:30;;;;;;;8.23;4.72;;;;;;;24.90;42.48;97821.72;10323866;28;20394;-51
2023/06/07 09:15:30;;;;;;;6.78;3.90;;;;;;;25.07;46.02;97821.59;10320857;28;20056;-51
2023/06/07 09:20:31;;;;;;;8.52;4.10;;;;;;;24.42;47.83;97829.69;10321284;28;20116;-49
2023/06/07 09:25:31;;;;;;;5.60;4.25;;;;;;;24.10;48.94;97827.94;10323095;28;20073;-49
2023/06/07 09:30:30;;;;;;;8.05;4.18;;;;;;;24.09;50.31;97832.38;10317142;28;20132;-51
2023/06/07 09:35:29;;;;;;;6.53;4.00;;;;;;;24.41;49.04;97822.69;10324487;28;20064;-51
2023/06/07 09:40:28;;;;;;;5.65;4.05;;;;;;;24.57;47.22;97819.19;10320208;28;20033;-50
2023/06/07 09:45:27;;;;;;;6.40;4.10;;;;;;;24.44;47.88;97817.19;10313602;28;20542;-51
2023/06/07 09:50:27;;;;;;;6.18;3.90;;;;;;;24.08;50.25;97822.75;10319629;28;20079;-51
2023/06/07 09:55:28;;;;;;;6.95;4.40;;;;;;;23.75;53.40;97823.63;10324699;28;20120;-51
2023/06/07 10:00:27;;;;;;;7.63;4.25;;;;;;;23.52;54.21;97838.06;10329442;28;20134;-52
2023/06/07 10:05:26;;;;;;;6.50;4.28;;;;;;;23.32;56.42;97824.97;10330051;28;20132;-52
2023/06/07 10:10:26;;;;;;;7.80;4.25;;;;;;;22.97;59.94;97819.66;10327289;28;20031;-51
2023/06/07 10:15:26;;;;;;;8.68;4.25;;;;;;;22.85;61.21;97778.81;10329842;28;20431;-50
2023/06/07 10:20:30;;;;;;;7.60;4.38;;;;;;;23.23;61.21;97829.81;10329824;28;20124;-51
2023/06/07 10:25:34;;;;;;;9.10;4.32;;;;;;;23.20;61.09;97827.31;10321385;28;20124;-52
2023/06/07 10:30:36;;;;;;;9.30;4.65;;;;;;;23.14;61.47;97821.47;10328239;28;20168;-52
2023/06/07 10:35:39;;;;;;;6.65;4.38;;;;;;;22.92;59.71;97819.06;10328680;28;20061;-53
2023/06/07 10:40:38;;;;;;;7.50;4.47;;;;;;;23.04;59.73;97810.50;10328572;28;20513;-52
2023/06/07 10:45:37;;;;;;;9.05;4.93;;;;;;;23.43;60.50;97817.34;10326897;28;20132;-51
2023/06/07 10:50:47;;;;;;;8.05;4.65;;;;;;;23.68;56.47;97816.06;10327078;28;20159;-52
2023/06/07 10:55:46;;;;;;;8.10;4.22;;;;;;;23.74;58.88;97816.59;10326940;28;20077;-50
2023/06/07 11:00:45;;;;;;;7.05;4.20;;;;;;;23.63;57.69;97817.19;10330565;28;20029;-52
2023/06/07 11:05:54;;;;;;;8.60;5.18;;;;;;;23.40;59.64;97817.50;10329536;28;20557;-52
2023/06/07 11:10:58;;;;;;;8.40;4.75;;;;;;;23.66;59.75;97812.66;10330131;28;20137;-52
2023/06/07 11:16:23;;;;;;;6.57;5.05;;;;;;;23.31;60.08;97804.72;10330315;28;20061;-52
2023/06/07 11:21:26;;;;;;;7.35;4.38;;;;;;;23.63;60.75;97808.34;10327077;28;20486;-53
2023/06/07 11:26:25;;;;;;;8.07;4.70;;;;;;;23.20;60.98;97808.78;10329258;28;20113;-52
2023/06/07 11:31:25;;;;;;;6.22;4.75;;;;;;;23.16;60.46;97801.94;10328980;28;20132;-51
2023/06/07 11:36:24;;;;;;;7.57;4.50;;;;;;;23.12;61.01;97802.19;10329720;28;20071;-52
2023/06/07 11:41:23;;;;;;;10.40;5.53;;;;;;;23.33;60.89;97805.50;10329323;28;20473;-51
2023/06/07 11:46:22;;;;;;;10.07;4.93;;;;;;;23.31;60.74;97789.69;10329167;28;20467;-51
2023/06/07 11:51:21;;;;;;;7.80;5.10;;;;;;;23.36;60.33;97778.88;10329266;28;20076;-51
2023/06/07 11:56:21;;;;;;;9.63;5.28;;;;;;;23.21;60.92;97794.63;10328945;28;20116;-52
2023/06/07 12:01:20;;;;;;;5.90;4.65;;;;;;;23.12;61.72;97786.28;10328708;28;20090;-52
2023/06/07 12:06:19;;;;;;;9.00;5.30;;;;;;;22.79;63.08;97790.56;10327036;28;20085;-52
2023/06/07 12:11:24;;;;;;;10.63;5.70;;;;;;;22.71;64.46;97781.25;10327987;28;20069;-52
2023/06/07 12:16:23;;;;;;;10.93;5.80;;;;;;;22.19;65.02;97763.50;10328030;28;20504;-53
2023/06/07 12:21:23;;;;;;;7.95;5.32;;;;;;;22.00;66.61;97767.97;10327576;28;20083;-51
2023/06/07 12:26:26;;;;;;;7.97;5.40;;;;;;;22.08;67.38;97784.28;10327158;28;20061;-52
2023/06/07 12:31:27;;;;;;;9.70;5.70;;;;;;;22.06;67.98;97779.09;10326345;28;20484;-53
2023/06/07 12:36:30;;;;;;;10.32;5.25;;;;;;;22.02;68.46;97790.75;10328423;28;20072;-51
2023/06/07 12:41:32;;;;;;;8.45;5.60;;;;;;;22.08;68.56;97786.94;10328139;28;20069;-53
2023/06/07 12:46:31;;;;;;;7.50;5.05;;;;;;;22.17;67.88;97763.56;10325084;28;20120;-50
2023/06/07 12:51:31;;;;;;;7.88;5.53;;;;;;;22.29;66.66;97777.13;10320422;28;20150;-53
2023/06/07 12:56:30;;;;;;;6.30;5.03;;;;;;;22.46;66.66;97763.09;10327354;28;20115;-49
2023/06/07 13:01:30;;;;;;;7.38;5.55;;;;;;;22.49;65.98;97763.81;10321762;28;20120;-53
2023/06/07 13:06:29;;;;;;;8.77;5.20;;;;;;;22.36;65.67;97760.88;10323354;28;20076;-50
2023/06/07 13:11:32;;;;;;;6.60;5.43;;;;;;;22.54;65.14;97758.28;10314838;28;20164;-51
2023/06/07 13:16:41;;;;;;;9.55;5.45;;;;;;;22.46;64.31;97756.03;10317705;28;20477;-54
2023/06/07 13:21:47;;;;;;;7.60;5.35;;;;;;;22.35;64.36;97738.03;10284898;28;20080;-51
2023/06/07 13:26:47;;;;;;;9.05;5.45;;;;;;;22.50;65.03;97746.16;10290663;28;20069;-52
2023/06/07 13:31:57;;;;;;;7.88;5.13;;;;;;;22.74;63.05;97734.38;10292371;28;20837;-52
2023/06/07 13:37:05;;;;;;;7.80;5.20;;;;;;;22.64;64.87;97758.69;10291086;28;20116;-53
2023/06/07 13:42:07;;;;;;;7.15;5.38;;;;;;;22.67;64.98;97748.81;10292099;28;20751;-53
2023/06/07 13:47:07;;;;;;;11.23;5.72;;;;;;;22.37;66.00;97720.31;10291302;28;20136;-52
2023/06/07 13:52:07;;;;;;;7.95;5.35;;;;;;;22.47;65.61;97741.03;10291267;28;20065;-52
2023/06/07 13:57:07;;;;;;;8.98;5.43;;;;;;;22.42;65.92;97743.03;10290713;28;20080;-52
2023/06/07 14:02:10;;;;;;;10.15;5.60;;;;;;;22.44;65.69;97746.47;10286338;28;20112;-52
2023/06/07 14:07:11;;;;;;;10.30;5.75;;;;;;;22.32;65.79;97743.50;10278014;28;20117;-52
2023/06/07 14:12:15;;;;;;;9.27;6.07;;;;;;;22.12;67.62;97746.22;10280174;28;20128;-51
2023/06/07 14:17:16;;;;;;;9.70;6.43;;;;;;;22.07;68.06;97753.53;10287650;28;20525;-50
2023/06/07 14:22:18;;;;;;;10.25;6.20;;;;;;;22.02;69.09;97745.81;10297231;28;20138;-51
2023/06/07 14:27:19;;;;;;;8.38;5.82;;;;;;;21.86;68.93;97739.50;10286496;28;20137;-52
2023/06/07 14:32:21;;;;;;;8.68;6.22;;;;;;;21.73;70.59;97755.06;10284338;28;20124;-52
2023/06/07 14:37:20;;;;;;;9.95;6.30;;;;;;;21.74;70.48;97756.78;10272992;28;20045;-53
2023/06/07 14:42:24;;;;;;;9.80;6.10;;;;;;;21.79;70.09;97754.78;10276753;28;20120;-52
2023/06/07 14:47:23;;;;;;;10.80;5.75;;;;;;;21.79;69.53;97746.00;10284685;28;20133;-50
2023/06/07 14:52:22;;;;;;;12.43;6.75;;;;;;;21.90;70.07;97752.50;10285719;28;20025;-53
2023/06/07 14:57:21;;;;;;;8.20;5.82;;;;;;;21.80;70.00;97751.19;10284269;28;20049;-53
2023/06/07 15:02:20;;;;;;;11.75;6.28;;;;;;;21.74;69.42;97756.78;10289323;28;20120;-52
2023/06/07 15:07:19;;;;;;;8.73;6.22;;;;;;;21.51;69.87;97753.41;10284349;28;20121;-53
2023/06/07 15:12:18;;;;;;;9.10;6.00;;;;;;;21.58;69.39;97758.41;10283459;28;20029;-51
2023/06/07 15:17:17;;;;;;;9.13;5.93;;;;;;;21.58;69.80;97755.78;10286257;28;20583;-52
2023/06/07 15:22:16;;;;;;;10.73;6.75;;;;;;;21.71;69.09;97755.16;10286345;28;20541;-51
2023/06/07 15:27:15;;;;;;;11.30;6.80;;;;;;;21.80;68.17;97760.91;10287819;28;20042;-51
2023/06/07 15:32:14;;;;;;;9.00;5.60;;;;;;;21.00;68.18;97661.56;10286656;28;20077;-53
2023/06/07 15:37:13;;;;;;;9.52;5.50;;;;;;;21.63;68.49;97765.19;10279991;28;20073;-52
2023/06/07 15:42:13;;;;;;;9.70;5.97;;;;;;;21.41;68.45;97717.78;10269422;28;20128;-53
2023/06/07 15:47:15;;;;;;;8.48;6.05;;;;;;;21.41;69.38;97756.53;10283277;28;20131;-53
2023/06/07 15:52:14;;;;;;;7.63;5.63;;;;;;;21.51;68.96;97763.97;10278384;28;20126;-53
2023/06/07 15:57:13;;;;;;;10.18;6.45;;;;;;;21.53;69.17;97763.91;10281086;28;20148;-53
2023/06/07 16:02:15;;;;;;;10.82;6.10;;;;;;;21.40;68.94;97758.31;10281115;28;20118;-53
2023/06/07 16:07:14;;;;;;;8.15;5.72;;;;;;;21.40;69.25;97755.66;10287399;28;20069;-52
2023/06/07 16:12:13;;;;;;;10.77;6.80;;;;;;;21.51;68.63;97760.47;10286909;28;20026;-52
2023/06/07 16:17:12;;;;;;;7.88;5.47;;;;;;;21.42;68.66;97756.44;10283727;28;20050;-51
2023/06/07 16:22:11;;;;;;;7.75;5.50;;;;;;;21.26;69.42;97747.50;10279479;28;20592;-52
2023/06/07 16:27:10;;;;;;;10.35;5.82;;;;;;;21.23;69.13;97758.19;10279968;28;20049;-51
2023/06/07 16:32:09;;;;;;;8.88;5.60;;;;;;;21.34;69.23;97755.94;10280029;28;20112;-51
2023/06/07 16:37:08;;;;;;;8.85;6.07;;;;;;;21.40;68.31;97750.38;10281867;28;20025;-48
2023/06/07 16:42:07;;;;;;;8.10;5.95;;;;;;;21.44;68.53;97745.84;10282152;28;20085;-54
2023/06/07 16:47:06;;;;;;;10.45;5.95;;;;;;;21.41;68.40;97757.38;10282884;28;20099;-52
2023/06/07 16:52:05;;;;;;;8.10;5.55;;;;;;;21.08;69.34;97738.59;10281122;28;20076;-52
2023/06/07 16:57:04;;;;;;;12.52;7.40;;;;;;;20.92;70.81;97720.78;10281207;28;20085;-52
2023/06/07 17:02:04;;;;;;;11.60;8.43;;;;;;;21.05;72.76;97755.38;10279801;28;20026;-52
2023/06/07 17:07:03;;;;;;;9.77;6.35;;;;;;;21.00;74.32;97748.63;10285875;28;20069;-53
2023/06/07 17:12:02;;;;;;;9.68;6.28;;;;;;;21.05;74.30;97758.03;10285532;28;20072;-51
2023/06/07 17:17:01;;;;;;;12.00;6.28;;;;;;;20.99;73.70;97737.22;10286000;28;20049;-53
2023/06/07 17:22:01;;;;;;;9.43;7.43;;;;;;;21.19;73.41;97751.31;10286093;28;20073;-52
2023/06/07 17:27:00;;;;;;;10.90;7.57;;;;;;;21.24;72.98;97749.34;10285814;28;20091;-53
2023/06/07 17:32:00;;;;;;;11.15;8.10;;;;;;;21.27;73.10;97751.88;10285984;28;20556;-50
2023/06/07 17:36:59;;;;;;;11.63;7.07;;;;;;;21.23;72.51;97748.50;10285576;28;20060;-51
2023/06/07 17:41:58;;;;;;;10.00;6.45;;;;;;;21.02;72.57;97738.84;10285262;28;20129;-51
2023/06/07 17:46:57;;;;;;;11.18;6.10;;;;;;;21.04;73.13;97751.06;10285411;28;20049;-50
2023/06/07 17:51:56;;;;;;;10.80;6.43;;;;;;;21.07;72.59;97756.19;10284642;28;20038;-52
2023/06/07 17:56:55;;;;;;;13.70;9.50;;;;;;;21.07;73.07;97753.56;10285469;28;20838;-53
2023/06/07 18:01:54;;;;;;;13.07;8.05;;;;;;;21.11;73.86;97757.78;10285450;28;20136;-53
2023/06/07 18:06:53;;;;;;;7.75;6.43;;;;;;;20.95;75.55;97761.16;10285332;28;20125;-50
2023/06/07 18:11:52;;;;;;;10.10;7.40;;;;;;;20.57;77.10;97764.47;10289076;28;20115;-52
2023/06/07 18:16:51;;;;;;;11.75;7.20;;;;;;;20.50;77.71;97763.88;10290057;28;20506;-52
2023/06/07 18:21:51;;;;;;;11.20;7.30;;;;;;;20.41;78.31;97768.66;10290843;28;20033;-53
2023/06/07 18:26:50;;;;;;;11.55;7.65;;;;;;;20.31;78.84;97770.78;10285707;28;20130;-51
2023/06/07 18:31:49;;;;;;;12.98;6.43;;;;;;;20.13;79.02;97771.50;10290903;28;20061;-52
2023/06/07 18:36:49;;;;;;;10.70;6.80;;;;;;;19.99;79.51;97779.94;10291703;28;20042;-54
2023/06/07 18:41:48;;;;;;;10.65;7.55;;;;;;;20.04;78.91;97767.44;10289920;28;20128;-51
2023/06/07 18:46:47;;;;;;;13.60;6.78;;;;;;;20.04;79.04;97780.59;10290179;28;20033;-51
2023/06/07 18:51:46;;;;;;;11.30;7.30;;;;;;;20.10;78.62;97777.75;10290310;28;20116;-52
2023/06/07 18:56:45;;;;;;;11.85;8.05;;;;;;;20.07;79.79;97785.75;10289968;28;20077;-53
2023/06/07 19:01:45;;;;;;;12.20;7.15;;;;;;;20.11;79.86;97779.44;10289681;28;20073;-50
2023/06/07 19:06:44;;;;;;;11.90;7.53;;;;;;;20.19;79.33;97793.19;10289841;28;20108;-50
2023/06/07 19:11:42;;;;;;;11.65;7.70;;;;;;;20.20;78.96;97792.28;10288821;28;20104;-52
2023/06/07 19:16:41;;;;;;;12.43;8.52;;;;;;;20.28;78.96;97797.22;10289269;28;20109;-51
2023/06/07 19:21:40;;;;;;;14.88;8.43;;;;;;;20.28;79.31;97799.88;10288580;28;20112;-49
2023/06/07 19:26:39;;;;;;;12.75;7.88;;;;;;;20.19;79.68;97793.19;10289660;28;20045;-52
2023/06/07 19:31:38;;;;;;;14.50;8.07;;;;;;;20.19;79.90;97792.31;10288878;28;20042;-51
2023/06/07 19:36:37;;;;;;;11.75;8.00;;;;;;;20.26;79.87;97794.69;10289393;28;20121;-51
2023/06/07 19:41:40;;;;;;;12.55;8.52;;;;;;;20.27;79.69;97793.75;10288184;28;20033;-50
2023/06/07 19:46:39;;;;;;;16.23;9.82;;;;;;;20.18;80.54;97795.88;10286829;28;20133;-54
2023/06/07 19:51:39;;;;;;;18.40;9.70;;;;;;;20.15;80.48;97785.47;10288686;28;20080;-52
2023/06/07 19:56:39;;;;;;;11.48;7.35;;;;;;;20.02;80.53;97764.00;10288657;28;20468;-51
2023/06/07 20:01:38;;;;;;;12.82;7.78;;;;;;;20.11;80.54;97784.72;10287525;28;20523;-51
2023/06/07 20:06:38;;;;;;;11.57;7.30;;;;;;;20.13;79.94;97780.25;10288609;28;20543;-51
2023/06/07 20:11:37;;;;;;;16.35;10.52;;;;;;;20.09;80.58;97776.00;10287925;28;20065;-51
2023/06/07 20:16:36;;;;;;;12.32;8.57;;;;;;;20.15;79.69;97780.22;10286303;28;20134;-51
2023/06/07 20:21:35;;;;;;;16.23;10.30;;;;;;;20.08;79.74;97774.31;10285103;28;20144;-53
2023/06/07 20:26:35;;;;;;;12.75;8.70;;;;;;;20.06;79.83;97774.34;10287259;28;20149;-51
2023/06/07 20:31:34;;;;;;;12.00;8.88;;;;;;;19.97;80.47;97765.97;10287237;28;20057;-49
2023/06/07 20:36:33;;;;;;;14.07;9.60;;;;;;;20.10;80.58;97776.91;10286239;28;20017;-53
2023/06/07 20:41:33;;;;;;;14.65;9.95;;;;;;;20.09;80.46;97776.00;10287201;28;20022;-50
2023/06/07 20:46:32;;;;;;;14.82;8.75;;;;;;;20.12;80.26;97775.03;10286398;28;20126;-51
2023/06/07 20:51:31;;;;;;;14.38;8.77;;;;;;;20.14;80.56;97768.81;10286545;28;20116;-53
2023/06/07 20:56:30;;;;;;;12.77;8.98;;;;;;;20.10;80.53;97769.00;10285764;28;20141;-51
2023/06/07 21:01:30;;;;;;;11.70;8.45;;;;;;;20.07;80.41;97764.69;10286364;28;20125;-49
2023/06/07 21:06:29;;;;;;;13.63;8.88;;;;;;;20.02;80.82;97764.00;10286524;28;20065;-51
2023/06/07 21:11:28;;;;;;;13.10;8.82;;;;;;;19.92;81.18;97758.25;10286628;28;20066;-51
2023/06/07 21:16:27;;;;;;;14.13;8.82;;;;;;;19.83;81.39;97759.44;10285654;28;20401;-51
2023/06/07 21:21:26;;;;;;;11.27;7.70;;;;;;;19.61;80.82;97722.56;10286079;28;20121;-51
2023/06/07 21:26:26;;;;;;;17.60;8.07;;;;;;;19.72;80.83;97761.66;10286579;28;20041;-50
2023/06/07 21:31:25;;;;;;;13.07;8.73;;;;;;;19.72;80.83;97761.66;10285832;28;20070;-52
2023/06/07 21:36:24;;;;;;;12.25;8.50;;;;;;;19.72;80.31;97755.50;10285538;28;20100;-51
2023/06/07 21:41:25;;;;;;;9.73;7.97;;;;;;;19.58;81.49;97756.91;10285476;28;20060;-52
2023/06/07 21:46:24;;;;;;;10.55;8.23;;;;;;;19.41;83.35;97749.56;10279973;28;20121;-52
2023/06/07 21:51:23;;;;;;;9.32;7.35;;;;;;;19.09;86.74;97761.28;10291972;28;20065;-49
2023/06/07 21:56:22;;;;;;;13.60;10.43;;;;;;;19.10;86.76;97744.56;10292634;28;20061;-50
2023/06/07 22:01:21;;;;;;;15.27;11.32;;;;;;;19.19;86.41;97740.75;10293037;28;20065;-51
2023/06/07 22:06:20;;;;;;;12.52;9.15;;;;;;;19.27;86.72;97743.94;10292131;28;20040;-51
2023/06/07 22:11:20;;;;;;;12.20;9.00;;;;;;;19.30;86.50;97741.25;10292351;28;20109;-52
2023/06/07 22:16:20;;;;;;;11.98;9.23;;;;;;;19.33;86.40;97737.63;10291236;28;20125;-50
2023/06/07 22:21:22;;;;;;;13.55;10.23;;;;;;;19.31;86.14;97735.03;10290400;28;20490;-50
2023/06/07 22:26:21;;;;;;;18.08;11.93;;;;;;;19.27;86.39;97733.44;10290412;28;20125;-51
2023/06/07 22:31:20;;;;;;;12.18;10.10;;;;;;;19.23;86.40;97730.06;10289860;28;20037;-52
2023/06/07 22:36:20;;;;;;;14.13;9.68;;;;;;;19.22;86.65;97730.13;10291768;28;20030;-51
2023/06/07 22:41:20;;;;;;;14.55;9.32;;;;;;;19.11;87.08;97720.00;10292972;28;20466;-51
2023/06/07 22:46:19;;;;;;;18.77;9.77;;;;;;;19.00;87.73;97724.78;10294728;28;20114;-52
2023/06/07 22:51:19;;;;;;;13.20;8.90;;;;;;;18.76;87.52;97701.06;10292435;28;20088;-49
2023/06/07 22:56:18;;;;;;;13.52;11.15;;;;;;;18.85;87.43;97720.03;10293793;28;20073;-51
2023/06/07 23:01:18;;;;;;;15.35;11.13;;;;;;;18.72;87.77;97719.63;10294397;28;20480;-50
2023/06/07 23:06:19;;;;;;;15.40;11.80;;;;;;;18.65;87.87;97718.09;10293211;28;20551;-51